Time,TemperatureF,DewpointF,PressureIn,WindDirection,WindDirectionDegrees,WindSpeedMPH,WindSpeedGustMPH,Humidity,HourlyPrecipIn,Conditions,Clouds,dailyrainin,SoftwareType,DateUTC
2013-05-28 00:03:00,59.0,54.0,-100.00,SW,224,0.0,1.0,84,0.00,,,0.00,,2013-05-28 04:03:00,
2013-05-28 00:33:00,57.0,54.0,-100.00,NNW,333,1.0,1.0,90,0.00,,,0.00,,2013-05-28 04:33:00,
2013-05-28 00:43:00,58.0,54.0,-100.00,WNW,296,0.0,0.0,89,0.00,,,0.00,,2013-05-28 04:43:00,
2013-05-28 00:52:00,58.0,54.0,-100.00,WNW,296,0.0,0.0,89,0.00,,,0.00,,2013-05-28 04:52:00,
2013-05-28 01:02:00,58.0,54.0,-100.00,NNW,346,1.0,1.0,88,0.00,,,0.00,,2013-05-28 05:02:00,
2013-05-28 01:12:00,58.0,54.0,-100.00,NNW,346,1.0,1.0,88,0.00,,,0.00,,2013-05-28 05:12:00,
2013-05-28 01:22:00,58.0,54.0,-100.00,NNW,346,1.0,1.0,88,0.00,,,0.00,,2013-05-28 05:22:00,
2013-05-28 01:33:00,57.0,54.0,-100.00,NNW,342,0.0,0.0,90,0.00,,,0.00,,2013-05-28 05:33:00,
2013-05-28 01:42:00,56.0,53.0,-100.00,NNW,330,1.0,1.0,91,0.00,,,0.00,,2013-05-28 05:42:00,
2013-05-28 01:50:00,55.0,53.0,-100.00,WSW,246,0.0,0.0,93,0.00,,,0.00,,2013-05-28 05:50:00,
2013-05-28 01:52:00,56.0,53.0,-100.00,NNW,330,1.0,1.0,91,0.00,,,0.00,,2013-05-28 05:52:00,
2013-05-28 02:02:00,56.0,53.0,-100.00,North,350,1.0,2.0,92,0.00,,,0.00,,2013-05-28 06:02:00,
2013-05-28 02:12:00,56.0,53.0,-100.00,North,350,1.0,2.0,92,0.00,,,0.00,,2013-05-28 06:12:00,
2013-05-28 02:22:00,56.0,53.0,-100.00,North,350,1.0,2.0,92,0.00,,,0.00,,2013-05-28 06:22:00,
2013-05-28 02:32:00,55.0,53.0,-100.00,WSW,246,0.0,0.0,93,0.00,,,0.00,,2013-05-28 06:32:00,
2013-05-28 02:42:00,55.0,53.0,-100.00,WSW,246,0.0,0.0,93,0.00,,,0.00,,2013-05-28 06:42:00,
2013-05-28 03:02:00,56.0,53.0,-100.00,SSW,195,2.0,3.0,90,0.00,,,0.00,,2013-05-28 07:02:00,
2013-05-28 03:11:00,56.0,53.0,-100.00,SSW,195,2.0,3.0,90,0.00,,,0.00,,2013-05-28 07:11:00,
2013-05-28 03:22:00,56.0,53.0,-100.00,SSW,195,2.0,3.0,90,0.00,,,0.00,,2013-05-28 07:22:00,
2013-05-28 03:32:00,53.0,51.0,-100.00,NNW,340,3.0,4.0,91,0.00,,,0.00,,2013-05-28 07:32:00,
2013-05-28 03:42:00,53.0,51.0,-100.00,NNW,346,0.0,1.0,93,0.00,,,0.00,,2013-05-28 07:42:00,
2013-05-28 03:52:00,53.0,51.0,-100.00,NNW,346,0.0,1.0,93,0.00,,,0.00,,2013-05-28 07:52:00,
2013-05-28 04:02:00,54.0,52.0,-100.00,NE,45,0.0,1.0,93,0.00,,,0.00,,2013-05-28 08:02:00,
2013-05-28 04:12:00,54.0,52.0,-100.00,NE,45,0.0,1.0,93,0.00,,,0.00,,2013-05-28 08:12:00,
2013-05-28 04:22:00,54.0,52.0,-100.00,NE,45,0.0,1.0,93,0.00,,,0.00,,2013-05-28 08:22:00,
2013-05-28 04:32:00,54.0,52.0,-100.00,SW,234,1.0,2.0,92,0.00,,,0.00,,2013-05-28 08:32:00,
2013-05-28 04:42:00,54.0,52.0,-100.00,SW,234,1.0,2.0,92,0.00,,,0.00,,2013-05-28 08:42:00,
2013-05-28 04:52:00,54.0,52.0,-100.00,SSW,202,0.0,1.0,92,0.00,,,0.00,,2013-05-28 08:52:00,
2013-05-28 05:01:00,53.0,51.0,-100.00,NNW,342,1.0,2.0,93,0.00,,,0.00,,2013-05-28 09:01:00,
2013-05-28 05:11:00,53.0,51.0,-100.00,NNW,342,1.0,2.0,93,0.00,,,0.00,,2013-05-28 09:11:00,
2013-05-28 05:22:00,53.0,51.0,-100.00,NNW,342,1.0,2.0,93,0.00,,,0.00,,2013-05-28 09:22:00,
2013-05-28 05:33:00,53.0,51.0,-100.00,NNW,329,1.0,2.0,94,0.00,,,0.00,,2013-05-28 09:33:00,
2013-05-28 05:43:00,53.0,51.0,-100.00,NNW,342,2.0,2.0,94,0.00,,,0.00,,2013-05-28 09:43:00,
2013-05-28 05:53:00,53.0,51.0,-100.00,NNW,342,2.0,2.0,94,0.00,,,0.00,,2013-05-28 09:53:00,
2013-05-28 06:03:00,53.0,51.0,-100.00,WSW,237,0.0,1.0,94,0.00,,,0.00,,2013-05-28 10:03:00,
2013-05-28 06:12:00,53.0,51.0,-100.00,WSW,237,0.0,1.0,94,0.00,,,0.00,,2013-05-28 10:12:00,
2013-05-28 06:23:00,53.0,51.0,-100.00,South,188,2.0,3.0,94,0.00,,,0.00,,2013-05-28 10:23:00,
2013-05-28 06:32:00,53.0,51.0,-100.00,South,188,2.0,3.0,94,0.00,,,0.00,,2013-05-28 10:32:00,
2013-05-28 06:43:00,52.0,50.0,-100.00,NNW,336,1.0,2.0,93,0.00,,,0.00,,2013-05-28 10:43:00,
2013-05-28 06:53:00,52.0,50.0,-100.00,NNW,336,1.0,2.0,93,0.00,,,0.00,,2013-05-28 10:53:00,
2013-05-28 07:02:00,52.0,50.0,-100.00,NNW,336,1.0,2.0,93,0.00,,,0.00,,2013-05-28 11:02:00,
2013-05-28 07:11:00,54.0,52.0,-100.00,SW,233,3.0,4.0,94,0.00,,,0.00,,2013-05-28 11:11:00,
2013-05-28 07:22:00,54.0,52.0,-100.00,SW,233,3.0,4.0,94,0.00,,,0.00,,2013-05-28 11:22:00,
2013-05-28 07:32:00,55.0,53.0,-100.00,SSW,195,5.0,6.0,93,0.00,,,0.00,,2013-05-28 11:32:00,
2013-05-28 07:42:00,55.0,53.0,-100.00,SSW,195,5.0,6.0,93,0.00,,,0.00,,2013-05-28 11:42:00,
2013-05-28 07:51:00,58.0,54.0,-100.00,SSW,198,1.0,2.0,87,0.00,,,0.00,,2013-05-28 11:51:00,
2013-05-28 07:52:00,57.0,53.0,-100.00,WSW,257,2.0,4.0,88,0.00,,,0.00,,2013-05-28 11:52:00,
2013-05-28 08:02:00,57.0,54.0,-100.00,West,270,0.0,2.0,90,0.00,,,0.00,,2013-05-28 12:02:00,
2013-05-28 08:11:00,57.0,54.0,-100.00,West,270,0.0,2.0,90,0.00,,,0.00,,2013-05-28 12:11:00,
2013-05-28 08:22:00,57.0,54.0,-100.00,West,270,0.0,2.0,90,0.00,,,0.00,,2013-05-28 12:22:00,
2013-05-28 08:31:00,62.0,56.0,-100.00,SW,229,2.0,4.0,83,0.00,,,0.00,,2013-05-28 12:31:00,
2013-05-28 08:32:00,58.0,54.0,-100.00,SSW,198,1.0,2.0,87,0.00,,,0.00,,2013-05-28 12:32:00,
2013-05-28 08:42:00,58.0,54.0,-100.00,SSW,198,1.0,2.0,87,0.00,,,0.00,,2013-05-28 12:42:00,
2013-05-28 09:01:00,62.0,56.0,-100.00,SW,229,2.0,4.0,83,0.00,,,0.00,,2013-05-28 13:01:00,
2013-05-28 09:11:00,62.0,56.0,-100.00,SW,229,2.0,4.0,83,0.00,,,0.00,,2013-05-28 13:11:00,
2013-05-28 09:22:00,62.0,56.0,-100.00,SW,229,2.0,4.0,83,0.00,,,0.00,,2013-05-28 13:22:00,
2013-05-28 09:52:00,65.0,56.0,-100.00,SSW,193,4.0,7.0,72,0.00,,,0.00,,2013-05-28 13:52:00,
2013-05-28 10:02:00,67.0,57.0,-100.00,South,176,6.0,10.0,70,0.00,,,0.00,,2013-05-28 14:02:00,
2013-05-28 10:12:00,67.0,57.0,-100.00,South,176,6.0,10.0,70,0.00,,,0.00,,2013-05-28 14:12:00,
2013-05-28 10:22:00,67.0,57.0,-100.00,South,176,6.0,10.0,70,0.00,,,0.00,,2013-05-28 14:22:00,
2013-05-28 10:31:00,69.0,58.0,-100.00,South,186,9.0,12.0,67,0.00,,,0.00,,2013-05-28 14:31:00,
2013-05-28 10:32:00,67.0,58.0,-100.00,South,188,5.0,7.0,73,0.00,,,0.00,,2013-05-28 14:32:00,
2013-05-28 10:42:00,68.0,57.0,-100.00,South,189,8.0,10.0,70,0.00,,,0.00,,2013-05-28 14:42:00,
2013-05-28 10:52:00,68.0,57.0,-100.00,South,189,8.0,10.0,70,0.00,,,0.00,,2013-05-28 14:52:00,
2013-05-28 11:01:00,69.0,58.0,-100.00,South,186,9.0,12.0,67,0.00,,,0.00,,2013-05-28 15:01:00,
2013-05-28 11:11:00,69.0,58.0,-100.00,South,186,9.0,12.0,67,0.00,,,0.00,,2013-05-28 15:11:00,
2013-05-28 11:21:00,69.0,58.0,-100.00,South,186,9.0,12.0,67,0.00,,,0.00,,2013-05-28 15:21:00,
2013-05-28 11:53:00,72.0,60.0,-100.00,SSE,157,5.0,8.0,66,0.00,,,0.00,,2013-05-28 15:53:00,
2013-05-28 12:03:00,73.0,61.0,-100.00,SSE,167,7.0,10.0,64,0.00,,,0.00,,2013-05-28 16:03:00,
2013-05-28 12:13:00,73.0,61.0,-100.00,SSE,167,7.0,10.0,64,0.00,,,0.00,,2013-05-28 16:13:00,
2013-05-28 12:23:00,74.0,61.0,-100.00,SSE,162,10.0,12.0,64,0.00,,,0.00,,2013-05-28 16:23:00,
2013-05-28 12:33:00,76.0,61.0,-100.00,SSE,162,7.0,10.0,60,0.00,,,0.00,,2013-05-28 16:33:00,
2013-05-28 12:42:00,76.0,61.0,-100.00,SSE,162,7.0,10.0,60,0.00,,,0.00,,2013-05-28 16:42:00,
2013-05-28 12:52:00,76.0,61.0,-100.00,SSE,162,7.0,10.0,60,0.00,,,0.00,,2013-05-28 16:52:00,
2013-05-28 13:02:00,76.0,60.0,-100.00,South,171,12.0,14.0,58,0.00,,,0.00,,2013-05-28 17:02:00,
2013-05-28 13:11:00,79.0,62.0,-100.00,South,176,10.0,13.0,55,0.00,,,0.00,,2013-05-28 17:11:00,
2013-05-28 13:12:00,76.0,60.0,-100.00,South,171,12.0,14.0,58,0.00,,,0.00,,2013-05-28 17:12:00,
2013-05-28 13:22:00,76.0,60.0,-100.00,South,171,12.0,14.0,58,0.00,,,0.00,,2013-05-28 17:22:00,
2013-05-28 13:32:00,79.0,63.0,-100.00,South,188,6.0,11.0,57,0.00,,,0.00,,2013-05-28 17:32:00,
2013-05-28 13:42:00,79.0,62.0,-100.00,South,176,10.0,13.0,55,0.00,,,0.00,,2013-05-28 17:42:00,
2013-05-28 13:52:00,79.0,62.0,-100.00,South,176,10.0,13.0,55,0.00,,,0.00,,2013-05-28 17:52:00,
2013-05-28 14:01:00,79.0,62.0,-100.00,South,176,10.0,13.0,55,0.00,,,0.00,,2013-05-28 18:01:00,
2013-05-28 16:31:00,81.0,61.0,-100.00,South,169,12.0,19.0,50,0.00,,,0.00,,2013-05-28 20:31:00,
2013-05-28 16:42:00,80.0,61.0,-100.00,South,175,13.0,19.0,53,0.00,,,0.00,,2013-05-28 20:42:00,
2013-05-28 16:52:00,80.0,61.0,-100.00,South,175,13.0,19.0,53,0.00,,,0.00,,2013-05-28 20:52:00,
2013-05-28 17:02:00,81.0,61.0,-100.00,South,169,12.0,19.0,50,0.00,,,0.00,,2013-05-28 21:02:00,
2013-05-28 17:11:00,81.0,61.0,-100.00,South,169,12.0,19.0,50,0.00,,,0.00,,2013-05-28 21:11:00,
2013-05-28 17:22:00,81.0,61.0,-100.00,South,169,12.0,19.0,50,0.00,,,0.00,,2013-05-28 21:22:00,
2013-05-28 17:53:00,80.0,60.0,-100.00,South,175,13.0,17.0,50,0.00,,,0.00,,2013-05-28 21:53:00,
2013-05-28 18:02:00,80.0,60.0,-100.00,South,175,13.0,17.0,50,0.00,,,0.00,,2013-05-28 22:02:00,
2013-05-28 18:33:00,79.0,61.0,-100.00,South,176,17.0,21.0,54,0.00,,,0.00,,2013-05-28 22:33:00,
2013-05-28 18:42:00,79.0,61.0,-100.00,South,176,17.0,21.0,54,0.00,,,0.00,,2013-05-28 22:42:00,
2013-05-28 18:52:00,80.0,58.0,-100.00,South,184,15.0,21.0,49,0.00,,,0.00,,2013-05-28 22:52:00,
2013-05-28 19:02:00,79.0,60.0,-100.00,South,179,12.0,16.0,53,0.00,,,0.00,,2013-05-28 23:02:00,
2013-05-28 19:11:00,79.0,60.0,-100.00,South,179,12.0,16.0,53,0.00,,,0.00,,2013-05-28 23:11:00,
2013-05-28 19:22:00,78.0,60.0,-100.00,South,186,10.0,13.0,54,0.00,,,0.00,,2013-05-28 23:22:00,
2013-05-28 19:30:00,78.0,59.0,-100.00,South,185,11.0,15.0,52,0.00,,,0.00,,2013-05-28 23:30:00,
2013-05-28 19:32:00,78.0,60.0,-100.00,South,186,10.0,13.0,54,0.00,,,0.00,,2013-05-28 23:32:00,
2013-05-28 19:42:00,78.0,59.0,-100.00,South,184,12.0,15.0,52,0.00,,,0.00,,2013-05-28 23:42:00,
2013-05-28 19:52:00,78.0,59.0,-100.00,South,184,12.0,15.0,52,0.00,,,0.00,,2013-05-28 23:52:00,
2013-05-28 20:02:00,78.0,59.0,-100.00,South,185,11.0,15.0,52,0.00,,,0.00,,2013-05-29 00:02:00,
2013-05-28 20:11:00,78.0,59.0,-100.00,South,185,11.0,15.0,52,0.00,,,0.00,,2013-05-29 00:11:00,
2013-05-28 20:22:00,78.0,59.0,-100.00,South,185,11.0,15.0,52,0.00,,,0.00,,2013-05-29 00:22:00,
2013-05-28 20:42:00,76.0,59.0,-100.00,SSW,192,9.0,13.0,56,0.00,,,0.00,,2013-05-29 00:42:00,
2013-05-28 20:52:00,76.0,59.0,-100.00,SSW,192,9.0,13.0,56,0.00,,,0.00,,2013-05-29 00:52:00,
2013-05-28 21:01:00,75.0,59.0,-100.00,South,185,10.0,13.0,57,0.00,,,0.00,,2013-05-29 01:01:00,
2013-05-28 21:11:00,75.0,59.0,-100.00,South,185,10.0,13.0,57,0.00,,,0.00,,2013-05-29 01:11:00,
2013-05-28 21:22:00,75.0,59.0,-100.00,South,185,10.0,13.0,57,0.00,,,0.00,,2013-05-29 01:22:00,
2013-05-28 21:32:00,74.0,58.0,-100.00,South,185,11.0,14.0,57,0.00,,,0.00,,2013-05-29 01:32:00,
2013-05-28 21:42:00,74.0,58.0,-100.00,South,179,10.0,13.0,59,0.00,,,0.00,,2013-05-29 01:42:00,
2013-05-28 21:52:00,74.0,58.0,-100.00,South,179,10.0,13.0,59,0.00,,,0.00,,2013-05-29 01:52:00,
2013-05-28 22:02:00,73.0,58.0,-100.00,South,182,11.0,13.0,60,0.00,,,0.00,,2013-05-29 02:02:00,
2013-05-28 22:12:00,73.0,58.0,-100.00,South,182,11.0,13.0,60,0.00,,,0.00,,2013-05-29 02:12:00,
2013-05-28 22:21:00,73.0,58.0,-100.00,South,182,11.0,13.0,60,0.00,,,0.00,,2013-05-29 02:21:00,
2013-05-28 22:32:00,73.0,59.0,-100.00,South,185,9.0,11.0,61,0.00,,,0.00,,2013-05-29 02:32:00,
2013-05-28 22:42:00,73.0,59.0,-100.00,South,185,8.0,10.0,61,0.00,,,0.00,,2013-05-29 02:42:00,
2013-05-28 22:51:00,73.0,59.0,-100.00,South,185,8.0,10.0,61,0.00,,,0.00,,2013-05-29 02:51:00,
2013-05-28 23:02:00,73.0,59.0,-100.00,South,188,9.0,12.0,61,0.00,,,0.00,,2013-05-29 03:02:00,
2013-05-28 23:12:00,73.0,59.0,-100.00,South,188,9.0,12.0,61,0.00,,,0.00,,2013-05-29 03:12:00,
2013-05-28 23:22:00,73.0,58.0,-100.00,SSW,192,10.0,13.0,59,0.00,,,0.00,,2013-05-29 03:22:00,
2013-05-28 23:33:00,73.0,58.0,-100.00,SSW,192,10.0,13.0,59,0.00,,,0.00,,2013-05-29 03:33:00,
2013-05-28 23:43:00,73.0,58.0,-100.00,SSW,192,9.0,12.0,60,0.00,,,0.00,,2013-05-29 03:43:00,
2013-05-28 23:53:00,73.0,58.0,-100.00,SSW,192,9.0,12.0,60,0.00,,,0.00,,2013-05-29 03:53:00,